Time;durP1;ratioP1;P1;durP2;ratioP2;P2;SDS_P1;SDS_P2;PMS_P1;PMS_P2;Temp;Humidity;BMP_temperature;BMP_pressure;BME280_temperature;BME280_humidity;BME280_pressure;Samples;Min_cycle;Max_cycle;Signal;HPM_P1;HPM_P2
2021/08/21 00:00:43;;;;;;;10.93;6.05;;;;;;;24.61;85.75;99284.94;4593297;77;28516;-87
2021/08/21 00:06:44;;;;;;;9.23;6.35;;;;;;;24.37;87.46;99282.59;4599327;77;28511;-86
2021/08/21 00:12:46;;;;;;;10.82;5.95;;;;;;;23.78;95.38;99283.02;4599334;77;28487;-86
2021/08/21 00:18:47;;;;;;;9.75;6.05;;;;;;;23.65;98.88;99284.70;4599342;77;28464;-86
2021/08/21 00:24:48;;;;;;;9.45;5.87;;;;;;;23.58;99.16;99285.70;4599770;77;28459;-86
2021/08/21 00:30:51;;;;;;;10.43;5.60;;;;;;;23.50;100.00;99280.41;4600200;77;28474;-85
2021/08/21 00:36:52;;;;;;;10.30;6.28;;;;;;;23.53;100.00;99293.52;4576443;77;28484;-85
2021/08/21 00:42:54;;;;;;;9.43;5.80;;;;;;;23.90;96.92;99289.86;4599229;77;28496;-85
2021/08/21 00:48:56;;;;;;;10.78;6.15;;;;;;;24.09;95.61;99295.98;4601603;76;28453;-84
2021/08/21 00:54:58;;;;;;;9.63;6.00;;;;;;;24.29;90.76;99292.98;4599717;77;28551;-84
2021/08/21 01:01:01;;;;;;;10.93;7.05;;;;;;;24.41;87.52;99294.55;4433801;80;28418;-84
2021/08/21 01:07:07;;;;;;;13.75;7.15;;;;;;;24.35;88.76;99288.97;4494669;79;28487;-84
2021/08/21 01:13:10;;;;;;;9.43;6.15;;;;;;;24.26;88.34;99287.55;4513501;79;28495;-86
2021/08/21 01:19:13;;;;;;;11.88;6.90;;;;;;;24.04;92.72;99284.31;4428947;80;28446;-84
2021/08/21 01:25:22;;;;;;;12.35;6.75;;;;;;;24.26;90.14;99288.12;4428658;80;28481;-84
2021/08/21 01:31:24;;;;;;;12.35;6.65;;;;;;;24.38;88.41;99282.84;4499288;79;28482;-85
2021/08/21 01:37:26;;;;;;;13.00;7.80;;;;;;;24.36;87.88;99276.27;4416273;81;28497;-84
2021/08/21 01:43:45;;;;;;;13.70;6.95;;;;;;;24.31;87.08;99281.10;4498970;78;28490;-84
2021/08/21 01:50:04;;;;;;;12.30;7.05;;;;;;;24.12;87.22;99275.31;4498801;79;28559;-85
2021/08/21 01:56:07;;;;;;;13.15;7.10;;;;;;;23.83;90.24;99275.77;4442207;78;28462;-85
2021/08/21 02:02:27;;;;;;;13.05;7.28;;;;;;;23.63;93.15;99274.61;4464088;79;28472;-84
2021/08/21 02:08:33;;;;;;;14.17;7.30;;;;;;;23.62;92.71;99270.80;4466620;79;28506;-84
2021/08/21 02:14:34;;;;;;;12.25;6.83;;;;;;;23.22;98.75;99276.94;4451662;79;28517;-85
2021/08/21 02:20:36;;;;;;;13.95;6.70;;;;;;;23.15;99.51;99282.03;4471918;79;28466;-85
2021/08/21 02:26:45;;;;;;;15.03;7.67;;;;;;;22.83;100.00;99286.83;4459330;79;28495;-86
2021/08/21 02:32:49;;;;;;;15.25;7.37;;;;;;;22.64;100.00;99290.25;4479715;79;28495;-86
2021/08/21 02:38:51;;;;;;;13.10;7.08;;;;;;;22.64;100.00;99299.30;4479173;79;28623;-86
2021/08/21 02:44:52;;;;;;;12.10;6.80;;;;;;;22.37;100.00;99291.87;4439343;78;28438;-85
2021/08/21 02:50:53;;;;;;;12.47;6.87;;;;;;;22.10;100.00;99293.46;4474744;79;28460;-85
2021/08/21 02:56:54;;;;;;;13.43;6.72;;;;;;;21.98;100.00;99294.77;4400892;80;28473;-84
2021/08/21 03:02:56;;;;;;;11.88;6.85;;;;;;;21.74;100.00;99297.64;4402402;80;28523;-85
2021/08/21 03:08:57;;;;;;;12.00;6.53;;;;;;;21.79;100.00;99302.21;4423606;80;28490;-84
2021/08/21 03:14:59;;;;;;;10.75;6.50;;;;;;;21.78;100.00;99303.33;4367262;80;28495;-82
2021/08/21 03:21:02;;;;;;;10.88;6.20;;;;;;;21.75;100.00;99291.63;4351738;81;28545;-81
2021/08/21 03:27:05;;;;;;;11.20;6.05;;;;;;;21.61;100.00;99301.13;4319352;82;28544;-80
2021/08/21 03:33:08;;;;;;;9.98;6.37;;;;;;;21.38;100.00;99303.09;4485744;78;28542;-81
2021/08/21 03:39:09;;;;;;;11.38;6.80;;;;;;;21.35;100.00;99305.06;4489123;79;28521;-81
2021/08/21 03:45:11;;;;;;;11.22;6.50;;;;;;;21.22;100.00;99306.61;4517631;77;28500;-79
2021/08/21 03:51:13;;;;;;;12.63;6.87;;;;;;;21.11;100.00;99320.17;4567649;77;28520;-79
2021/08/21 03:57:17;;;;;;;14.13;6.47;;;;;;;21.15;100.00;99320.66;4555192;77;28559;-79
2021/08/21 04:03:18;;;;;;;14.18;7.20;;;;;;;21.03;100.00;99323.84;4556944;78;28476;-80
2021/08/21 04:09:21;;;;;;;15.25;7.00;;;;;;;21.21;100.00;99338.37;4573319;78;28459;-80
2021/08/21 04:15:24;;;;;;;9.95;6.22;;;;;;;21.41;100.00;99341.35;4484833;79;28500;-81
2021/08/21 04:21:26;;;;;;;10.58;6.17;;;;;;;21.39;100.00;99346.31;4584633;78;28524;-80
2021/08/21 04:27:28;;;;;;;11.05;6.08;;;;;;;21.75;100.00;99353.98;4584606;77;28496;-81
2021/08/21 04:33:29;;;;;;;9.70;6.37;;;;;;;21.72;100.00;99360.89;4573997;76;28503;-79
2021/08/21 04:39:32;;;;;;;10.72;6.33;;;;;;;21.65;100.00;99359.05;4572682;77;28980;-80
2021/08/21 04:45:33;;;;;;;10.03;6.55;;;;;;;21.89;100.00;99368.30;4598950;77;28473;-80
2021/08/21 04:51:37;;;;;;;8.00;6.00;;;;;;;21.90;100.00;99366.61;4599072;77;28573;-79
2021/08/21 04:57:40;;;;;;;10.25;6.28;;;;;;;21.99;100.00;99371.66;4598877;77;28523;-79
2021/08/21 05:03:41;;;;;;;10.48;6.55;;;;;;;22.13;100.00;99377.75;4598919;77;28488;-80
2021/08/21 05:09:43;;;;;;;9.85;6.90;;;;;;;22.27;100.00;99385.98;4608439;77;28501;-80
2021/08/21 05:15:47;;;;;;;9.10;6.22;;;;;;;22.45;100.00;99381.56;4592287;77;28543;-80
2021/08/21 05:22:10;;;;;;;11.30;6.80;;;;;;;22.54;100.00;99388.55;4543913;77;28530;-80
2021/08/21 05:27:59;;;;;;;8.98;6.37;;;;;;;22.79;100.00;99398.20;4588370;77;28503;-80
2021/08/21 05:34:01;;;;;;;9.90;7.03;;;;;;;22.95;100.00;99404.73;4573108;77;28477;-80
2021/08/21 05:40:03;;;;;;;12.98;7.70;;;;;;;23.11;100.00;99417.58;4370764;80;28471;-79
2021/08/21 05:46:05;;;;;;;9.93;7.25;;;;;;;23.15;100.00;99417.78;4416150;79;28464;-79
2021/08/21 05:52:06;;;;;;;13.10;8.10;;;;;;;23.38;100.00;99426.93;4379290;80;28502;-80
2021/08/21 05:58:07;;;;;;;12.93;7.90;;;;;;;23.53;100.00;99425.78;4424612;80;28506;-80
2021/08/21 06:04:09;;;;;;;12.53;7.83;;;;;;;23.63;99.14;99434.33;4566244;77;28470;-80
2021/08/21 06:10:14;;;;;;;13.88;7.75;;;;;;;23.75;97.33;99428.31;4524434;77;28650;-80
2021/08/21 06:16:16;;;;;;;14.38;8.43;;;;;;;23.87;96.36;99439.55;4465235;79;28488;-80
2021/08/21 06:22:17;;;;;;;13.72;8.23;;;;;;;23.75;95.81;99436.55;4485278;79;28487;-81
2021/08/21 06:28:19;;;;;;;12.37;7.90;;;;;;;23.92;94.17;99443.56;4485127;78;28476;-82
2021/08/21 06:34:20;;;;;;;13.38;7.92;;;;;;;24.06;93.42;99445.45;4484573;79;28522;-83
2021/08/21 06:40:21;;;;;;;13.80;7.85;;;;;;;24.02;94.19;99438.38;4485028;79;28509;-83
2021/08/21 06:46:23;;;;;;;14.50;8.33;;;;;;;24.26;90.11;99435.89;4485546;79;28472;-88
2021/08/21 06:52:24;;;;;;;14.07;8.58;;;;;;;24.35;89.68;99447.75;4485127;78;28460;-80
2021/08/21 06:58:30;;;;;;;16.10;9.15;;;;;;;24.69;88.17;99438.64;4451686;78;28533;-82
2021/08/21 07:04:32;;;;;;;16.85;8.80;;;;;;;25.21;83.27;99438.61;4459515;78;28539;-82
2021/08/21 07:10:33;;;;;;;16.27;9.05;;;;;;;25.58;80.29;99441.95;4511846;77;28547;-82
2021/08/21 07:16:34;;;;;;;13.10;8.50;;;;;;;25.83;78.48;99451.92;4573533;76;28514;-83
2021/08/21 07:22:35;;;;;;;12.88;8.25;;;;;;;25.92;76.92;99448.36;4559131;77;28490;-84
2021/08/21 07:28:37;;;;;;;11.85;8.05;;;;;;;25.79;78.87;99452.33;4556328;76;28537;-77
2021/08/21 07:34:40;;;;;;;11.55;7.80;;;;;;;25.95;77.63;99455.97;4569173;76;28477;-81
2021/08/21 07:40:42;;;;;;;12.15;7.83;;;;;;;26.02;75.82;99458.47;4570833;76;28477;-82
2021/08/21 07:46:43;;;;;;;12.85;8.43;;;;;;;25.99;75.06;99460.50;4579232;76;28534;-83
2021/08/21 07:52:46;;;;;;;11.83;8.25;;;;;;;26.27;75.86;99466.25;4560003;76;28489;-83
2021/08/21 07:58:48;;;;;;;10.70;7.20;;;;;;;26.54;72.83;99473.91;4568237;77;28531;-82
2021/08/21 08:04:50;;;;;;;10.82;7.72;;;;;;;26.56;69.44;99478.52;4557841;76;28520;-83
2021/08/21 08:10:52;;;;;;;11.22;6.50;;;;;;;26.54;66.80;99476.09;4519346;76;28457;-82
2021/08/21 08:16:53;;;;;;;9.00;6.30;;;;;;;26.64;65.21;99479.08;4541073;76;28467;-83
2021/08/21 08:22:56;;;;;;;8.95;5.87;;;;;;;26.63;63.11;99476.64;4564160;76;28455;-85
2021/08/21 08:28:58;;;;;;;7.47;5.33;;;;;;;27.00;64.81;99475.66;4564472;76;28496;-80
2021/08/21 08:34:59;;;;;;;7.62;4.83;;;;;;;27.26;63.67;99489.33;4564133;77;28494;-79
2021/08/21 08:41:01;;;;;;;8.20;4.55;;;;;;;27.49;60.15;99480.74;4541708;77;28507;-80
2021/08/21 08:47:02;;;;;;;8.05;4.90;;;;;;;27.47;56.43;99482.22;4561617;76;28498;-79
2021/08/21 08:53:04;;;;;;;6.67;4.00;;;;;;;27.27;57.08;99488.73;4557368;76;28518;-78
2021/08/21 08:59:05;;;;;;;6.58;4.40;;;;;;;27.05;50.18;99490.63;4569969;76;28442;-79
2021/08/21 09:05:12;;;;;;;8.00;4.67;;;;;;;26.59;49.03;99494.41;4562203;76;28472;-80
2021/08/21 09:11:22;;;;;;;;;;;;;;;26.79;50.53;99494.84;4577032;76;28452;-79
2021/08/21 09:17:23;;;;;;;8.13;4.90;;;;;;;26.85;46.45;99486.05;4561199;76;20167;-77
2021/08/21 09:23:39;;;;;;;9.68;5.10;;;;;;;27.09;50.97;99492.98;4550209;76;28496;-77
2021/08/21 09:29:40;;;;;;;7.03;4.72;;;;;;;27.67;52.89;99484.22;4555829;76;28629;-77
2021/08/21 09:35:41;;;;;;;7.87;5.45;;;;;;;27.84;52.24;99486.04;4458511;77;28440;-77
2021/08/21 09:41:57;;;;;;;6.03;5.08;;;;;;;27.93;49.35;99490.14;4390391;79;28521;-76
2021/08/21 09:48:02;;;;;;;6.35;5.00;;;;;;;27.63;48.85;99486.05;4387684;79;28450;-78
2021/08/21 09:54:07;;;;;;;7.65;5.30;;;;;;;28.20;50.78;99484.41;4378077;80;28496;-78
2021/08/21 10:00:10;;;;;;;7.60;5.13;;;;;;;28.05;51.04;99487.19;4388842;79;36526;-78
2021/08/21 10:06:14;;;;;;;7.80;5.90;;;;;;;28.10;50.13;99485.59;4409982;79;28510;-77
2021/08/21 10:12:16;;;;;;;9.25;6.25;;;;;;;27.57;48.69;99486.00;4557809;76;28508;-76
2021/08/21 10:18:20;;;;;;;7.12;6.00;;;;;;;27.19;52.89;99491.79;4572788;77;28493;-77
2021/08/21 10:24:36;;;;;;;9.03;6.22;;;;;;;27.08;53.05;99487.23;4568633;76;28449;-77
2021/08/21 10:30:44;;;;;;;7.87;6.37;;;;;;;26.67;53.57;99485.89;4475680;77;28497;-77
2021/08/21 10:36:50;;;;;;;7.67;5.30;;;;;;;26.68;49.60;99491.64;4369532;79;28442;-76
2021/08/21 10:42:57;;;;;;;8.23;5.37;;;;;;;27.09;49.95;99483.88;4478397;78;28478;-81
2021/08/21 10:49:04;;;;;;;7.85;5.28;;;;;;;27.16;52.34;99480.60;4392167;79;28548;-80
2021/08/21 10:55:17;;;;;;;8.93;4.95;;;;;;;27.42;49.51;99483.22;4432080;79;28534;-81
2021/08/21 11:01:23;;;;;;;5.40;4.37;;;;;;;27.30;48.06;99479.81;4559271;77;28443;-81
2021/08/21 11:07:40;;;;;;;6.20;4.30;;;;;;;27.42;43.82;99472.99;4570097;77;28448;-82
2021/08/21 11:14:02;;;;;;;6.95;5.60;;;;;;;27.59;46.65;99463.58;4473492;77;28458;-81
2021/08/21 11:20:33;;;;;;;7.42;5.30;;;;;;;26.93;45.41;99472.04;4446753;78;28586;-80
2021/08/21 11:26:35;;;;;;;6.40;5.25;;;;;;;27.22;45.08;99460.76;4427969;78;28434;-81
2021/08/21 11:32:43;;;;;;;6.12;5.00;;;;;;;27.80;43.74;99461.63;4450395;78;28481;-80
2021/08/21 11:38:44;;;;;;;6.05;5.40;;;;;;;27.21;45.88;99457.77;4432199;78;28655;-82
2021/08/21 11:44:55;;;;;;;7.10;5.53;;;;;;;27.56;45.53;99448.48;4440376;78;28543;-76
2021/08/21 11:50:58;;;;;;;6.67;4.75;;;;;;;27.54;46.40;99454.36;4440236;78;28532;-83
2021/08/21 11:57:03;;;;;;;6.87;4.53;;;;;;;27.49;40.86;99453.69;4445900;78;28457;-83
2021/08/21 12:03:08;;;;;;;6.78;4.97;;;;;;;27.64;41.06;99455.08;4561468;76;28445;-81
2021/08/21 12:09:17;;;;;;;6.03;4.55;;;;;;;27.83;42.29;99450.48;4571283;76;28480;-81
2021/08/21 12:15:19;;;;;;;6.10;5.50;;;;;;;27.94;41.11;99431.52;4561725;77;28437;-81
2021/08/21 12:21:22;;;;;;;5.67;4.58;;;;;;;27.69;41.37;99431.42;4568965;77;28466;-81
2021/08/21 12:27:28;;;;;;;5.62;4.60;;;;;;;27.52;40.77;99435.89;4550614;77;28523;-83
2021/08/21 12:33:41;;;;;;;5.30;4.55;;;;;;;27.78;40.59;99432.72;4564519;76;28448;-81
2021/08/21 12:39:42;;;;;;;7.22;4.80;;;;;;;28.04;41.37;99429.72;4577363;76;28525;-81
2021/08/21 12:45:44;;;;;;;5.25;4.58;;;;;;;28.35;41.47;99426.30;4567250;76;28526;-81
2021/08/21 12:51:46;;;;;;;5.05;3.90;;;;;;;28.25;41.35;99431.11;4473550;77;28540;-80
2021/08/21 12:57:47;;;;;;;6.08;4.90;;;;;;;28.06;40.19;99429.39;4391131;79;28574;-80
2021/08/21 13:04:09;;;;;;;5.50;4.37;;;;;;;28.19;40.78;99437.98;4458560;78;28440;-81
2021/08/21 13:10:13;;;;;;;5.47;4.83;;;;;;;28.37;39.88;99424.78;4445175;79;28549;-80
2021/08/21 13:16:15;;;;;;;5.67;4.67;;;;;;;27.76;41.04;99428.94;4541610;77;28495;-80
2021/08/21 13:22:16;;;;;;;8.75;5.17;;;;;;;27.95;39.63;99428.44;4557005;76;28562;-79
2021/08/21 13:28:19;;;;;;;5.85;4.53;;;;;;;27.24;40.07;99423.17;4552895;77;28479;-80
2021/08/21 13:34:20;;;;;;;7.33;5.30;;;;;;;27.97;40.19;99417.05;4564989;76;28458;-80
2021/08/21 13:40:22;;;;;;;6.40;4.62;;;;;;;28.00;41.55;99408.08;4528852;76;28538;-83
2021/08/21 13:46:23;;;;;;;5.83;5.00;;;;;;;28.13;40.50;99413.08;4558377;76;28514;-80
2021/08/21 13:52:24;;;;;;;6.58;5.03;;;;;;;28.05;39.69;99406.47;4479726;79;28568;-80
2021/08/21 13:58:27;;;;;;;7.28;5.12;;;;;;;28.24;39.62;99400.47;4478977;79;28475;-78
2021/08/21 14:04:28;;;;;;;7.30;5.53;;;;;;;28.03;40.13;99402.45;4417434;79;28454;-82
2021/08/21 14:10:30;;;;;;;8.00;5.25;;;;;;;28.14;39.98;99396.72;4420591;80;28539;-78
2021/08/21 14:16:34;;;;;;;6.22;4.47;;;;;;;28.38;38.44;99404.30;4408066;80;28475;-78
2021/08/21 14:22:36;;;;;;;5.78;4.45;;;;;;;28.71;38.36;99396.27;4437791;80;28505;-77
2021/08/21 14:28:38;;;;;;;6.10;4.45;;;;;;;28.62;37.83;99394.98;4410224;81;28571;-77
2021/08/21 14:34:42;;;;;;;6.97;4.55;;;;;;;28.75;37.75;99395.80;4437430;80;28586;-78
2021/08/21 14:40:43;;;;;;;5.22;4.60;;;;;;;28.82;37.79;99393.30;4410082;81;28545;-78
2021/08/21 14:46:45;;;;;;;5.03;4.33;;;;;;;28.70;37.92;99387.16;4441201;79;28463;-77
2021/08/21 14:52:46;;;;;;;6.00;4.45;;;;;;;28.97;37.89;99386.27;4405852;80;28526;-77
2021/08/21 14:58:47;;;;;;;5.92;4.72;;;;;;;28.92;37.89;99383.72;4403157;81;28467;-77
2021/08/21 15:04:49;;;;;;;5.62;4.85;;;;;;;28.86;37.88;99379.59;4424719;80;28470;-76
2021/08/21 15:10:50;;;;;;;5.50;4.60;;;;;;;28.52;38.51;99379.66;4417473;80;28490;-77
2021/08/21 15:16:51;;;;;;;4.97;4.40;;;;;;;28.43;39.08;99383.92;4413685;81;28496;-77
2021/08/21 15:22:53;;;;;;;6.65;4.30;;;;;;;28.60;39.21;99377.37;4415532;81;28486;-77
2021/08/21 15:28:54;;;;;;;6.60;4.85;;;;;;;28.70;38.65;99370.55;4414994;79;28484;-78
2021/08/21 15:34:57;;;;;;;5.00;4.47;;;;;;;28.74;38.72;99364.58;4414887;80;28466;-78
2021/08/21 15:40:59;;;;;;;5.70;4.42;;;;;;;28.35;39.55;99369.63;4415187;80;28470;-77
2021/08/21 15:47:01;;;;;;;5.85;4.37;;;;;;;28.63;37.96;99362.02;4414697;81;28528;-78
2021/08/21 15:53:03;;;;;;;5.75;5.08;;;;;;;28.70;38.40;99362.26;4410627;80;28500;-79
2021/08/21 15:59:04;;;;;;;6.10;4.25;;;;;;;28.49;39.54;99365.94;4399718;80;28575;-77
2021/08/21 16:05:07;;;;;;;6.05;4.20;;;;;;;28.75;37.88;99363.98;4467034;79;28479;-76
2021/08/21 16:11:08;;;;;;;6.03;4.72;;;;;;;28.58;38.30;99354.75;4389607;81;28490;-78
2021/08/21 16:17:09;;;;;;;7.60;4.92;;;;;;;28.09;39.62;99360.44;4421485;80;28513;-78
2021/08/21 16:23:11;;;;;;;7.20;5.10;;;;;;;28.31;39.14;99359.82;4484922;79;28543;-77
2021/08/21 16:29:13;;;;;;;6.28;4.97;;;;;;;27.97;40.42;99357.65;4406455;81;28583;-77
2021/08/21 16:35:14;;;;;;;7.28;5.15;;;;;;;28.34;39.90;99359.72;4388625;79;28550;-78
2021/08/21 16:41:17;;;;;;;7.03;4.92;;;;;;;28.29;40.45;99359.92;4417007;80;28496;-78
2021/08/21 16:47:19;;;;;;;6.17;4.97;;;;;;;28.18;40.56;99353.45;4434244;80;28478;-78
2021/08/21 16:53:22;;;;;;;5.80;4.55;;;;;;;27.90;40.45;99357.39;4412867;80;28492;-77
2021/08/21 16:59:26;;;;;;;5.33;4.72;;;;;;;28.02;42.07;99360.19;4408496;80;28494;-79
2021/08/21 17:05:27;;;;;;;6.22;4.97;;;;;;;27.82;42.34;99363.23;4404958;81;28462;-79
2021/08/21 17:11:31;;;;;;;6.53;5.28;;;;;;;27.46;43.08;99368.78;4317877;82;28547;-77
2021/08/21 17:17:37;;;;;;;8.78;5.25;;;;;;;27.34;43.38;99369.55;4256340;82;28558;-78
2021/08/21 17:23:38;;;;;;;7.35;5.65;;;;;;;27.19;45.74;99371.74;4298363;81;28520;-78
2021/08/21 17:29:40;;;;;;;9.30;6.05;;;;;;;26.67;58.22;99375.59;4311241;81;28469;-77
2021/08/21 17:35:41;;;;;;;10.82;5.80;;;;;;;26.54;61.28;99382.35;4317784;81;28532;-79
2021/08/21 17:41:42;;;;;;;7.42;5.80;;;;;;;26.29;62.87;99382.68;4317012;82;28860;-78
2021/08/21 17:47:44;;;;;;;10.48;6.08;;;;;;;25.94;60.31;99393.75;4317688;81;28477;-78
2021/08/21 17:53:45;;;;;;;9.18;6.28;;;;;;;26.01;64.25;99398.20;4328438;80;28524;-78
2021/08/21 17:59:49;;;;;;;11.25;6.50;;;;;;;25.47;64.32;99396.58;4304968;81;28544;-79
2021/08/21 18:05:52;;;;;;;9.35;6.60;;;;;;;24.91;69.69;99404.80;4316656;81;28495;-77
2021/08/21 18:11:54;;;;;;;9.33;6.12;;;;;;;24.82;71.31;99407.27;4324525;81;28494;-77
2021/08/21 18:17:57;;;;;;;8.73;5.50;;;;;;;25.04;68.58;99412.70;4388333;81;28449;-77
2021/08/21 18:24:01;;;;;;;11.73;6.10;;;;;;;24.89;70.00;99419.44;4325825;79;28583;-77
2021/08/21 18:30:03;;;;;;;11.88;6.83;;;;;;;24.92;67.07;99424.84;4322226;82;28477;-78
2021/08/21 18:36:07;;;;;;;9.03;6.80;;;;;;;24.92;63.71;99423.47;4322746;82;28503;-78
2021/08/21 18:42:13;;;;;;;9.43;6.37;;;;;;;24.67;68.93;99436.78;4322755;81;28578;-77
2021/08/21 18:48:14;;;;;;;8.73;5.92;;;;;;;24.51;66.50;99434.42;4321972;82;28543;-78
2021/08/21 18:54:18;;;;;;;10.88;6.80;;;;;;;24.16;70.18;99442.46;4318789;79;28499;-77
2021/08/21 19:00:20;;;;;;;10.45;6.05;;;;;;;23.94;73.79;99448.17;4398055;81;28470;-77
2021/08/21 19:06:21;;;;;;;8.40;5.50;;;;;;;23.62;74.21;99451.38;4398246;80;28489;-78
2021/08/21 19:12:25;;;;;;;7.95;5.92;;;;;;;23.87;73.07;99452.48;4402240;80;28544;-78
2021/08/21 19:18:26;;;;;;;10.13;6.60;;;;;;;23.80;74.70;99454.28;4413245;81;28461;-77
2021/08/21 19:24:28;;;;;;;14.47;7.28;;;;;;;23.50;76.18;99453.27;4414441;81;28517;-78
2021/08/21 19:30:29;;;;;;;9.53;6.62;;;;;;;23.58;76.17;99452.30;4415355;80;28484;-78
2021/08/21 19:36:30;;;;;;;8.85;6.30;;;;;;;23.50;77.88;99451.10;4415499;81;28932;-77
2021/08/21 19:42:32;;;;;;;11.73;6.90;;;;;;;22.98;82.41;99454.88;4412143;80;28497;-78
2021/08/21 19:48:34;;;;;;;9.60;6.83;;;;;;;23.13;80.20;99463.35;4414483;81;28516;-80
2021/08/21 19:54:35;;;;;;;10.53;7.05;;;;;;;23.14;78.71;99456.75;4410739;80;28454;-79
2021/08/21 20:00:38;;;;;;;14.03;7.25;;;;;;;23.05;78.86;99456.62;4389423;80;28467;-77
2021/08/21 20:06:41;;;;;;;11.85;7.30;;;;;;;22.91;82.13;99455.83;4381267;79;28488;-79
2021/08/21 20:12:42;;;;;;;13.03;7.20;;;;;;;22.78;85.69;99450.58;4400857;79;28529;-79
2021/08/21 20:18:44;;;;;;;16.23;10.45;;;;;;;22.67;84.31;99455.45;4464993;79;28548;-79
2021/08/21 20:24:46;;;;;;;15.23;10.30;;;;;;;22.56;84.96;99452.06;4393591;79;28513;-80
2021/08/21 20:30:52;;;;;;;14.03;9.00;;;;;;;22.62;84.62;99455.52;4404341;79;28573;-78
2021/08/21 20:36:53;;;;;;;13.65;8.60;;;;;;;22.65;82.02;99460.39;4414133;79;28462;-78
2021/08/21 20:42:55;;;;;;;13.88;9.88;;;;;;;22.74;85.82;99462.70;4304195;82;28508;-77
2021/08/21 20:48:56;;;;;;;13.35;9.98;;;;;;;22.04;94.05;99462.47;4409257;78;28536;-78
2021/08/21 20:54:59;;;;;;;15.95;10.88;;;;;;;22.97;82.82;99459.53;4410739;80;28483;-82
2021/08/21 21:01:01;;;;;;;13.88;9.23;;;;;;;22.66;84.18;99462.84;4366320;79;28536;-80
2021/08/21 21:07:03;;;;;;;19.30;10.25;;;;;;;22.49;88.34;99460.68;4333915;80;28566;-80
2021/08/21 21:13:05;;;;;;;18.70;11.05;;;;;;;22.54;87.82;99456.50;4280182;81;28530;-83
2021/08/21 21:19:06;;;;;;;18.05;11.57;;;;;;;22.03;91.55;99458.11;4198556;84;28453;-82
2021/08/21 21:25:10;;;;;;;21.85;14.15;;;;;;;22.24;90.16;99465.45;4312158;81;28503;-82
2021/08/21 21:31:11;;;;;;;16.05;11.70;;;;;;;22.03;89.89;99460.84;4310773;83;28460;-81
2021/08/21 21:37:12;;;;;;;18.05;11.97;;;;;;;21.98;91.53;99466.42;4310744;83;28519;-83
2021/08/21 21:43:14;;;;;;;20.48;13.50;;;;;;;21.94;91.92;99465.37;4310815;81;28462;-82
2021/08/21 21:49:15;;;;;;;20.97;14.90;;;;;;;21.73;93.26;99466.49;4311883;83;28539;-82
2021/08/21 21:55:20;;;;;;;22.65;14.78;;;;;;;21.40;94.22;99472.37;4310148;81;28579;-82
2021/08/21 22:01:21;;;;;;;22.13;13.72;;;;;;;22.33;86.46;99466.95;4309636;81;28449;-82
2021/08/21 22:07:25;;;;;;;24.60;15.70;;;;;;;22.69;82.31;99468.28;4309774;83;28519;-82
2021/08/21 22:13:25;;;;;;;24.85;16.32;;;;;;;22.32;85.50;99465.87;4310672;80;28578;-82
2021/08/21 22:19:27;;;;;;;26.48;17.10;;;;;;;22.63;81.58;99457.15;4310791;83;28569;-82
2021/08/21 22:25:29;;;;;;;23.22;16.00;;;;;;;22.41;83.31;99456.69;4310041;81;28580;-81
2021/08/21 22:31:31;;;;;;;25.70;16.87;;;;;;;22.11;84.04;99456.61;4310183;81;28532;-81
2021/08/21 22:37:33;;;;;;;26.37;15.90;;;;;;;21.57;89.63;99452.72;4270984;83;28509;-81
2021/08/21 22:43:37;;;;;;;26.27;17.15;;;;;;;21.84;87.04;99458.13;4298311;81;28589;-81
2021/08/21 22:49:39;;;;;;;29.15;18.55;;;;;;;21.61;85.92;99454.32;4305080;83;28485;-81
2021/08/21 22:55:41;;;;;;;27.65;18.48;;;;;;;21.62;88.16;99455.41;4305379;82;28521;-82
2021/08/21 23:01:43;;;;;;;29.48;17.52;;;;;;;21.41;89.71;99451.58;4305516;81;28537;-81
2021/08/21 23:07:46;;;;;;;29.45;17.62;;;;;;;21.27;92.24;99448.73;4303858;82;28481;-81
2021/08/21 23:13:48;;;;;;;27.70;17.85;;;;;;;21.16;92.52;99440.41;4303965;80;28485;-82
2021/08/21 23:19:50;;;;;;;27.27;17.55;;;;;;;21.31;89.90;99431.99;4304139;81;28845;-78
2021/08/21 23:25:57;;;;;;;29.50;18.25;;;;;;;21.31;87.13;99435.30;4305029;83;28473;-78
2021/08/21 23:31:58;;;;;;;27.27;16.52;;;;;;;21.18;89.56;99432.15;4304744;82;28564;-78
2021/08/21 23:37:59;;;;;;;26.00;15.78;;;;;;;21.20;89.43;99426.97;4305086;83;28489;-78
2021/08/21 23:44:01;;;;;;;27.50;15.63;;;;;;;21.04;90.37;99425.77;4306411;81;28461;-78
2021/08/21 23:50:08;;;;;;;26.20;16.35;;;;;;;21.24;90.03;99433.47;4307932;81;28532;-79
2021/08/21 23:56:13;;;;;;;27.35;17.40;;;;;;;21.13;89.84;99434.13;4312318;81;28462;-78
